Time;durP1;ratioP1;P1;durP2;ratioP2;P2;SDS_P1;SDS_P2;PMS_P1;PMS_P2;Temp;Humidity;BMP_temperature;BMP_pressure;BME280_temperature;BME280_humidity;BME280_pressure;Samples;Min_cycle;Max_cycle;Signal;HPM_P1;HPM_P2
2022/04/07 00:00:32;;;;;;;8.38;2.53;;;;;;;16.31;35.28;97216.66;4428769;32;20184;-91
2022/04/07 00:02:57;;;;;;;7.18;2.33;;;;;;;16.25;35.53;97209.34;4424891;32;20152;-90
2022/04/07 00:05:23;;;;;;;7.37;2.30;;;;;;;16.29;35.66;97207.22;4424858;32;20120;-92
2022/04/07 00:07:48;;;;;;;9.38;2.30;;;;;;;16.23;35.63;97208.66;4424677;32;20128;-88
2022/04/07 00:10:13;;;;;;;7.37;2.00;;;;;;;16.26;35.69;97199.53;4431331;32;20144;-87
2022/04/07 00:12:39;;;;;;;6.78;2.10;;;;;;;16.26;35.54;97199.53;4439847;32;20508;-87
2022/04/07 00:15:05;;;;;;;7.78;1.85;;;;;;;16.27;35.44;97194.06;4440330;32;20093;-87
2022/04/07 00:17:30;;;;;;;6.20;2.22;;;;;;;16.24;35.52;97193.56;4440295;32;20117;-88
2022/04/07 00:19:56;;;;;;;6.62;2.00;;;;;;;16.19;35.61;97187.91;4421704;32;20404;-89
2022/04/07 00:22:21;;;;;;;8.02;2.15;;;;;;;16.17;35.66;97180.09;4425031;32;20094;-88
2022/04/07 00:24:46;;;;;;;6.32;1.70;;;;;;;16.20;35.56;97182.41;4424774;32;20098;-85
2022/04/07 00:27:12;;;;;;;7.45;1.90;;;;;;;16.21;35.64;97175.28;4424543;32;20382;-85
2022/04/07 00:29:37;;;;;;;7.47;2.22;;;;;;;16.18;35.73;97172.94;4426373;32;20276;-86
2022/04/07 00:32:05;;;;;;;7.82;2.28;;;;;;;16.20;35.68;97171.78;4439690;32;20069;-85
2022/04/07 00:34:31;;;;;;;5.70;1.85;;;;;;;16.21;35.67;97168.13;4439955;32;20128;-88
2022/04/07 00:36:57;;;;;;;6.87;1.98;;;;;;;16.20;35.69;97168.28;4440107;32;20414;-87
2022/04/07 00:39:22;;;;;;;6.45;1.83;;;;;;;16.12;36.02;97163.78;4439525;32;20137;-87
2022/04/07 00:41:48;;;;;;;7.60;2.20;;;;;;;16.16;35.97;97164.28;4424537;32;20093;-87
2022/04/07 00:44:14;;;;;;;8.07;2.30;;;;;;;16.16;35.91;97165.13;4410742;32;20123;-88
2022/04/07 00:46:40;;;;;;;7.28;2.10;;;;;;;16.19;35.93;97164.00;4424560;32;20465;-87
2022/04/07 00:49:06;;;;;;;7.07;1.98;;;;;;;16.14;36.08;97158.31;4424599;32;20093;-88
2022/04/07 00:51:34;;;;;;;6.20;2.08;;;;;;;16.20;36.03;97163.81;4437579;32;20107;-87
2022/04/07 00:53:59;;;;;;;5.75;1.90;;;;;;;16.15;36.06;97155.50;4440061;32;20139;-88
2022/04/07 00:56:25;;;;;;;7.57;2.22;;;;;;;16.14;36.07;97153.81;4440726;32;20361;-86
2022/04/07 00:58:51;;;;;;;6.10;1.75;;;;;;;16.00;36.33;97149.13;4440588;32;20127;-87
2022/04/07 01:01:22;;;;;;;6.57;2.00;;;;;;;16.15;36.03;97146.69;4428496;32;20082;-87
2022/04/07 01:03:50;;;;;;;6.97;1.98;;;;;;;16.12;36.15;97150.50;4425123;32;20113;-86
2022/04/07 01:06:15;;;;;;;6.75;1.98;;;;;;;16.07;36.55;97147.47;4425170;32;20116;-85
2022/04/07 01:08:41;;;;;;;7.35;2.25;;;;;;;16.12;36.49;97140.69;4425098;32;20089;-85
2022/04/07 01:11:07;;;;;;;6.75;2.03;;;;;;;16.09;36.48;97140.19;4435540;32;20090;-84
2022/04/07 01:13:46;;;;;;;7.12;1.90;;;;;;;16.03;36.86;97133.69;4438315;32;20460;-85
2022/04/07 01:16:15;;;;;;;7.07;1.90;;;;;;;16.01;37.07;97135.69;4440717;32;20483;-85
2022/04/07 01:18:40;;;;;;;6.32;2.00;;;;;;;15.99;37.17;97134.16;4440439;32;20181;-85
2022/04/07 01:21:09;;;;;;;9.02;2.05;;;;;;;15.96;37.16;97131.84;4415946;32;20148;-86
2022/04/07 01:23:35;;;;;;;7.87;2.15;;;;;;;15.96;37.20;97139.81;4424985;32;20731;-86
2022/04/07 01:26:02;;;;;;;7.57;2.20;;;;;;;15.94;37.17;97134.63;4410653;32;20117;-86
2022/04/07 01:28:27;;;;;;;7.03;2.17;;;;;;;15.92;37.43;97131.31;4424954;32;20123;-85
2022/04/07 01:30:53;;;;;;;6.10;2.08;;;;;;;15.78;37.42;97131.88;4419158;32;20082;-85
2022/04/07 01:33:18;;;;;;;7.82;2.33;;;;;;;15.75;37.52;97127.72;4425805;32;20125;-85
2022/04/07 01:35:44;;;;;;;8.45;2.33;;;;;;;15.92;37.28;97121.50;4440314;32;20150;-84
2022/04/07 01:38:10;;;;;;;5.93;2.00;;;;;;;15.86;37.16;97116.84;4426397;32;20137;-84
2022/04/07 01:40:36;;;;;;;6.12;1.95;;;;;;;15.72;37.33;97106.75;4419700;32;20468;-85
2022/04/07 01:43:04;;;;;;;4.95;1.92;;;;;;;15.81;37.25;97107.69;4423805;32;20132;-85
2022/04/07 01:45:31;;;;;;;7.05;1.98;;;;;;;15.68;37.49;97103.63;4411507;32;20163;-84
2022/04/07 01:47:56;;;;;;;4.95;1.65;;;;;;;15.74;37.42;97099.50;4411117;32;20146;-85
2022/04/07 01:50:24;;;;;;;6.30;1.83;;;;;;;15.72;37.74;97098.78;4429521;32;20452;-85
2022/04/07 01:52:50;;;;;;;6.55;2.10;;;;;;;15.69;37.89;97102.59;4426332;32;20094;-86
2022/04/07 01:55:16;;;;;;;7.32;2.00;;;;;;;15.69;37.84;97104.44;4439045;32;20150;-87
2022/04/07 01:57:43;;;;;;;9.88;2.05;;;;;;;15.68;37.87;97100.09;4440202;32;20084;-85
2022/04/07 02:00:09;;;;;;;7.07;2.00;;;;;;;15.67;37.95;97096.63;4436556;32;20112;-88
2022/04/07 02:02:35;;;;;;;7.28;2.12;;;;;;;15.66;38.13;97091.47;4425021;32;20121;-87
2022/04/07 02:05:09;;;;;;;6.97;1.98;;;;;;;15.58;37.63;97092.25;4425193;32;20097;-87
2022/04/07 02:07:35;;;;;;;6.55;2.08;;;;;;;15.61;37.61;97099.91;4425018;32;20184;-88
2022/04/07 02:10:02;;;;;;;6.53;2.30;;;;;;;15.61;37.73;97099.91;4413140;32;20108;-89
2022/04/07 02:12:29;;;;;;;5.65;1.85;;;;;;;15.62;37.87;97095.44;4440146;32;20109;-86
2022/04/07 02:14:59;;;;;;;6.80;1.95;;;;;;;15.60;37.96;97086.78;4440103;32;20170;-89
2022/04/07 02:17:25;;;;;;;6.53;1.95;;;;;;;15.58;38.03;97078.16;4426191;32;20111;-88
2022/04/07 02:19:54;;;;;;;6.07;1.85;;;;;;;15.54;38.22;97073.16;4424668;32;20094;-87
2022/04/07 02:22:20;;;;;;;5.82;1.73;;;;;;;15.53;38.62;97074.16;4410536;32;20153;-86
2022/04/07 02:24:47;;;;;;;5.87;2.12;;;;;;;15.52;39.04;97074.31;4437806;32;20145;-86
2022/04/07 02:27:12;;;;;;;4.93;1.73;;;;;;;15.45;39.33;97060.84;4426165;32;20081;-85
2022/04/07 02:29:38;;;;;;;7.97;2.40;;;;;;;15.47;39.14;97064.16;4440014;32;20499;-88
2022/04/07 02:32:04;;;;;;;6.10;1.95;;;;;;;15.49;38.89;97058.69;4437297;32;20123;-88
2022/04/07 02:34:30;;;;;;;8.90;2.58;;;;;;;15.41;38.86;97051.50;4440019;32;20399;-86
2022/04/07 02:36:55;;;;;;;8.77;2.92;;;;;;;15.31;38.32;97043.66;4439615;32;20098;-86
2022/04/07 02:39:21;;;;;;;7.70;2.20;;;;;;;15.36;38.21;97043.19;4426150;32;20082;-87
2022/04/07 02:41:46;;;;;;;8.52;2.22;;;;;;;15.38;38.30;97030.59;4425035;32;20121;-87
2022/04/07 02:44:12;;;;;;;8.57;2.47;;;;;;;15.37;38.43;97025.44;4424765;32;20108;-85
2022/04/07 02:46:38;;;;;;;7.82;2.30;;;;;;;15.33;38.53;97031.06;4410926;32;20094;-86
2022/04/07 02:49:04;;;;;;;7.53;2.22;;;;;;;15.32;38.54;97016.16;4424854;32;20106;-87
2022/04/07 02:51:31;;;;;;;5.70;2.00;;;;;;;15.33;38.52;97019.63;4437155;32;20097;-86
2022/04/07 02:53:58;;;;;;;5.87;2.10;;;;;;;15.33;38.56;97012.50;4440195;32;20127;-85
2022/04/07 02:56:27;;;;;;;7.12;2.22;;;;;;;15.38;38.60;97009.38;4426392;32;20151;-86
2022/04/07 02:58:54;;;;;;;6.62;2.42;;;;;;;15.27;38.88;96999.84;4440027;32;20072;-87
2022/04/07 03:01:19;;;;;;;7.90;2.53;;;;;;;15.33;38.35;97006.34;4411661;32;20613;-87
2022/04/07 03:03:45;;;;;;;7.53;2.40;;;;;;;15.27;38.33;97009.66;4424195;32;20145;-86
2022/04/07 03:06:10;;;;;;;8.15;2.47;;;;;;;15.27;38.54;97013.13;4410403;32;20155;-85
2022/04/07 03:08:36;;;;;;;7.75;2.45;;;;;;;15.28;38.55;97008.66;4424416;32;20101;-85
2022/04/07 03:11:02;;;;;;;8.13;2.47;;;;;;;15.24;38.84;96994.03;4421443;32;20125;-87
2022/04/07 03:13:28;;;;;;;10.07;3.40;;;;;;;15.24;39.24;96992.22;4439561;32;20132;-88
2022/04/07 03:15:54;;;;;;;11.27;3.50;;;;;;;15.19;39.28;96991.03;4425578;32;20089;-89
2022/04/07 03:18:19;;;;;;;9.75;3.85;;;;;;;15.21;39.12;96997.00;4439579;32;20128;-88
2022/04/07 03:20:45;;;;;;;11.43;4.37;;;;;;;15.17;38.94;96993.84;4429579;32;20093;-87
2022/04/07 03:23:11;;;;;;;10.50;4.47;;;;;;;15.20;38.47;96995.34;4424209;32;20407;-86
2022/04/07 03:25:36;;;;;;;9.45;3.90;;;;;;;15.14;38.38;97002.09;4410190;32;20178;-88
2022/04/07 03:28:03;;;;;;;10.30;4.32;;;;;;;14.75;39.61;97002.50;4424077;32;20115;-87
2022/04/07 03:30:29;;;;;;;11.13;4.57;;;;;;;14.83;39.42;96999.06;4417560;32;20113;-86
2022/04/07 03:32:54;;;;;;;11.40;4.20;;;;;;;14.80;39.76;96991.44;4439425;32;20129;-87
2022/04/07 03:35:20;;;;;;;10.88;4.07;;;;;;;14.61;40.11;96995.09;4438390;32;20459;-85
2022/04/07 03:37:45;;;;;;;10.73;3.87;;;;;;;14.78;39.85;96985.47;4438339;32;20368;-86
2022/04/07 03:40:11;;;;;;;10.75;3.47;;;;;;;14.58;40.17;96982.16;4423851;32;20101;-87
2022/04/07 03:42:37;;;;;;;10.68;4.20;;;;;;;14.77;39.94;96970.53;4423809;32;20116;-89
2022/04/07 03:45:03;;;;;;;9.75;3.45;;;;;;;14.74;39.81;96967.22;4424133;32;20130;-89
2022/04/07 03:47:30;;;;;;;10.15;3.80;;;;;;;14.71;40.09;96964.03;4423934;32;20078;-86
2022/04/07 03:49:55;;;;;;;9.23;3.60;;;;;;;14.71;39.97;96959.56;4437918;32;20094;-85
2022/04/07 03:52:21;;;;;;;9.57;3.28;;;;;;;14.62;40.08;96962.31;4439328;32;20089;-86
2022/04/07 03:54:46;;;;;;;8.75;3.35;;;;;;;14.39;40.48;96954.81;4439223;32;20116;-86
2022/04/07 03:57:11;;;;;;;10.13;3.40;;;;;;;14.69;40.08;96950.94;4439110;32;20112;-86
2022/04/07 03:59:38;;;;;;;9.23;3.30;;;;;;;14.67;40.34;96952.91;4426526;32;20440;-86
2022/04/07 04:02:06;;;;;;;9.05;3.08;;;;;;;14.75;40.10;96955.59;4409545;32;20124;-85
2022/04/07 04:04:32;;;;;;;9.52;3.40;;;;;;;14.72;40.10;96947.97;4409795;32;20085;-84
2022/04/07 04:06:58;;;;;;;9.57;3.20;;;;;;;14.63;40.21;96943.59;4409558;32;20132;-86
2022/04/07 04:09:23;;;;;;;7.87;2.92;;;;;;;14.53;40.33;96941.00;4424232;32;20120;-85
2022/04/07 04:11:49;;;;;;;9.68;3.30;;;;;;;14.70;40.10;96936.72;4423242;32;20119;-85
2022/04/07 04:14:15;;;;;;;8.65;3.25;;;;;;;14.54;40.34;96934.75;4423242;32;20130;-83
2022/04/07 04:16:41;;;;;;;8.55;3.00;;;;;;;14.67;39.97;96934.34;4409458;32;20124;-84
2022/04/07 04:19:10;;;;;;;9.10;2.92;;;;;;;14.64;40.00;96933.81;4423575;32;20106;-85
2022/04/07 04:21:35;;;;;;;9.07;3.30;;;;;;;14.40;40.49;96937.94;4409494;32;20109;-86
2022/04/07 04:24:01;;;;;;;9.18;3.40;;;;;;;14.48;41.22;96937.16;4423363;32;20123;-87
2022/04/07 04:26:26;;;;;;;8.55;2.95;;;;;;;14.39;41.21;96940.72;4423146;32;20121;-86
2022/04/07 04:28:52;;;;;;;9.27;3.30;;;;;;;14.33;41.13;96944.81;4434352;32;20101;-84
2022/04/07 04:31:17;;;;;;;9.77;3.58;;;;;;;14.33;41.16;96936.87;4438700;32;20109;-84
2022/04/07 04:33:43;;;;;;;9.13;3.28;;;;;;;14.63;40.64;96945.44;4438628;32;20123;-84
2022/04/07 04:36:09;;;;;;;9.18;3.15;;;;;;;14.58;40.62;96945.88;4438478;32;20143;-85
2022/04/07 04:38:34;;;;;;;9.20;3.15;;;;;;;14.49;40.63;96930.88;4428964;32;20160;-86
2022/04/07 04:41:00;;;;;;;9.15;3.33;;;;;;;14.64;40.15;96939.13;4433082;32;20142;-86
2022/04/07 04:43:25;;;;;;;9.50;3.33;;;;;;;14.43;40.47;96950.03;4438559;32;20159;-87
2022/04/07 04:45:51;;;;;;;9.38;3.37;;;;;;;14.55;40.24;96941.69;4438119;32;20120;-87
2022/04/07 04:48:16;;;;;;;10.38;3.45;;;;;;;14.61;40.50;96942.09;4439721;32;20145;-86
2022/04/07 04:50:42;;;;;;;8.45;3.30;;;;;;;14.83;40.31;96946.06;4440877;32;20101;-86
2022/04/07 04:53:07;;;;;;;10.20;3.85;;;;;;;14.83;40.29;96944.22;4440875;32;20084;-84
2022/04/07 04:55:33;;;;;;;10.55;3.65;;;;;;;14.71;40.56;96938.34;4440756;32;20357;-84
2022/04/07 04:57:58;;;;;;;10.07;3.30;;;;;;;14.84;40.13;96942.44;4435062;32;20399;-86
2022/04/07 05:00:23;;;;;;;9.75;3.87;;;;;;;14.87;40.24;96935.00;4425167;32;20101;-87
2022/04/07 05:02:49;;;;;;;9.57;3.65;;;;;;;14.72;40.32;96941.84;4425024;32;20115;-86
2022/04/07 05:05:14;;;;;;;9.25;3.65;;;;;;;14.74;40.63;96940.72;4425157;32;20113;-87
2022/04/07 05:07:40;;;;;;;9.40;3.70;;;;;;;14.86;40.52;96937.81;4413878;32;20109;-89
2022/04/07 05:10:06;;;;;;;10.35;3.85;;;;;;;14.98;40.27;96941.84;4440628;32;20426;-88
2022/04/07 05:12:31;;;;;;;10.52;3.53;;;;;;;14.97;40.19;96942.00;4426394;32;20132;-88
2022/04/07 05:14:57;;;;;;;9.40;4.00;;;;;;;14.91;40.24;96940.78;4440557;32;20116;-89
2022/04/07 05:17:22;;;;;;;10.68;3.83;;;;;;;14.78;40.49;96940.41;4439429;32;20155;-88
2022/04/07 05:19:48;;;;;;;10.98;4.10;;;;;;;14.61;41.01;96942.94;4425080;32;20096;-88
2022/04/07 05:22:14;;;;;;;10.13;4.22;;;;;;;14.92;40.53;96943.31;4425224;32;20097;-90
2022/04/07 05:24:39;;;;;;;10.55;3.97;;;;;;;15.02;40.33;96935.22;4425006;32;20085;-87
2022/04/07 05:27:05;;;;;;;9.40;3.95;;;;;;;14.86;40.81;96940.44;4424938;32;20090;-86
2022/04/07 05:29:30;;;;;;;10.15;4.10;;;;;;;15.11;40.12;96944.09;4437749;32;20089;-87
2022/04/07 05:31:55;;;;;;;10.23;4.20;;;;;;;15.04;40.35;96941.22;4440201;32;20090;-88
2022/04/07 05:34:21;;;;;;;11.77;4.40;;;;;;;15.17;40.08;96942.63;4426229;32;20350;-84
2022/04/07 05:36:46;;;;;;;10.57;4.35;;;;;;;15.13;40.13;96945.56;4440287;32;20121;-87
2022/04/07 05:39:13;;;;;;;10.05;4.37;;;;;;;15.01;40.70;96952.16;4439937;32;20085;-86
2022/04/07 05:41:39;;;;;;;10.95;4.57;;;;;;;15.16;40.42;96949.72;4440252;32;20494;-89
2022/04/07 05:44:05;;;;;;;12.13;4.95;;;;;;;15.01;40.61;96957.44;4440243;32;20442;-90
2022/04/07 05:46:30;;;;;;;10.00;4.00;;;;;;;15.11;40.52;96962.66;4439981;32;20089;-89
2022/04/07 05:48:55;;;;;;;12.48;4.93;;;;;;;15.27;40.32;96960.06;4430644;32;20094;-88
2022/04/07 05:51:21;;;;;;;11.07;4.75;;;;;;;15.33;40.14;96969.22;4423462;32;20081;-86
2022/04/07 05:53:46;;;;;;;10.98;4.37;;;;;;;15.38;40.26;96960.81;4424693;32;20151;-86
2022/04/07 05:56:12;;;;;;;10.55;4.62;;;;;;;15.48;40.20;96969.47;4424969;32;20121;-84
2022/04/07 05:58:37;;;;;;;12.02;5.18;;;;;;;15.59;40.11;96960.37;4431237;32;20093;-85
2022/04/07 06:01:02;;;;;;;11.23;4.70;;;;;;;15.57;40.16;96970.31;4440277;32;20085;-89
2022/04/07 06:03:28;;;;;;;10.63;4.80;;;;;;;15.64;40.09;96966.84;4435132;32;165112;-88
2022/04/07 06:05:53;;;;;;;12.80;4.50;;;;;;;15.66;39.94;96964.88;4440108;32;20685;-87
2022/04/07 06:08:19;;;;;;;12.05;4.78;;;;;;;15.79;39.66;96967.13;4434575;32;20657;-87
2022/04/07 06:10:45;;;;;;;11.00;4.78;;;;;;;15.77;39.44;96961.13;4424856;32;20897;-88
2022/04/07 06:13:11;;;;;;;11.90;4.30;;;;;;;15.96;39.18;96962.69;4398141;32;20110;-87
2022/04/07 06:15:39;;;;;;;11.73;5.35;;;;;;;16.09;39.02;96970.19;4425013;32;20167;-89
2022/04/07 06:18:05;;;;;;;;;;;;;;;16.28;38.17;96969.91;4425482;32;20124;-88
2022/04/07 06:20:31;;;;;;;12.10;4.72;;;;;;;16.43;38.07;96959.41;4440408;32;20075;-90
2022/04/07 06:22:57;;;;;;;10.70;4.55;;;;;;;16.30;38.19;96967.91;4440445;32;20131;-90
2022/04/07 06:25:22;;;;;;;11.95;4.43;;;;;;;16.46;38.01;96967.06;4426471;32;20135;-89
2022/04/07 06:27:48;;;;;;;10.48;4.47;;;;;;;16.57;37.84;96970.38;4428165;32;20397;-89
2022/04/07 06:30:16;;;;;;;12.35;4.50;;;;;;;16.67;38.07;96976.41;4425089;32;20342;-89
2022/04/07 06:32:42;;;;;;;10.15;4.20;;;;;;;16.75;38.01;96976.38;4423651;32;20085;-88
2022/04/07 06:35:09;;;;;;;12.50;4.53;;;;;;;16.83;38.05;96983.56;4424827;32;20105;-86
2022/04/07 06:37:53;;;;;;;12.15;5.10;;;;;;;16.93;38.07;96984.19;4420478;32;20101;-86
2022/04/07 06:40:21;;;;;;;11.63;4.90;;;;;;;16.92;38.00;96979.91;4439478;32;20187;-88
2022/04/07 06:42:47;;;;;;;12.57;4.70;;;;;;;16.99;37.37;96988.03;4425992;32;20085;-88
2022/04/07 06:45:13;;;;;;;11.90;4.45;;;;;;;17.10;37.43;97000.97;4439895;32;20468;-87
2022/04/07 06:47:42;;;;;;;12.35;4.97;;;;;;;16.85;37.35;96997.50;4429199;32;20109;-87
2022/04/07 06:50:13;;;;;;;11.63;4.65;;;;;;;16.74;37.28;97000.47;4424453;32;20207;-89
2022/04/07 06:52:40;;;;;;;12.18;4.87;;;;;;;16.67;37.50;97006.47;4410491;32;20499;-88
2022/04/07 06:55:06;;;;;;;11.05;5.00;;;;;;;16.82;37.58;97005.81;4424270;32;20093;-87
2022/04/07 06:57:31;;;;;;;12.02;4.78;;;;;;;16.86;37.98;97009.81;4433241;32;20097;-82
2022/04/07 06:59:57;;;;;;;11.73;4.50;;;;;;;17.04;37.85;97002.47;4439262;32;20105;-87
2022/04/07 07:02:23;;;;;;;11.23;4.43;;;;;;;16.97;38.15;97003.31;4429108;32;20509;-88
2022/04/07 07:04:48;;;;;;;10.32;4.28;;;;;;;17.03;37.34;97002.66;4424025;32;20444;-88
2022/04/07 07:07:14;;;;;;;10.68;4.80;;;;;;;17.16;37.61;97010.94;4423067;32;20089;-88
2022/04/07 07:09:39;;;;;;;12.18;5.00;;;;;;;17.23;36.78;97005.75;4422728;32;20164;-90
2022/04/07 07:12:05;;;;;;;11.55;4.82;;;;;;;17.28;36.77;97012.25;4430416;32;20491;-90
2022/04/07 07:14:30;;;;;;;12.13;5.40;;;;;;;17.26;37.35;97008.91;4439031;32;20145;-89
2022/04/07 07:16:56;;;;;;;10.13;4.62;;;;;;;17.24;37.03;97010.91;4438842;32;20138;-88
2022/04/07 07:19:26;;;;;;;11.85;4.80;;;;;;;17.26;36.95;97016.91;4439049;32;20423;-90
2022/04/07 07:21:53;;;;;;;13.07;5.10;;;;;;;17.31;37.02;97013.75;4433647;32;20896;-92
2022/04/07 07:24:18;;;;;;;12.23;5.12;;;;;;;17.21;36.71;97008.63;4410152;32;20098;-91
2022/04/07 07:26:44;;;;;;;12.05;4.82;;;;;;;17.29;36.78;97011.25;4425954;32;20115;-91
2022/04/07 07:29:10;;;;;;;13.50;4.82;;;;;;;17.34;36.81;97013.41;4437457;32;20149;-87
2022/04/07 07:31:36;;;;;;;11.45;4.90;;;;;;;17.20;36.84;97006.13;4439479;32;20112;-89
2022/04/07 07:34:03;;;;;;;13.35;4.95;;;;;;;17.35;36.88;97015.06;4439535;32;20082;-88
2022/04/07 07:36:29;;;;;;;11.95;5.20;;;;;;;17.42;37.35;97015.22;4425119;32;20113;-89
2022/04/07 07:38:54;;;;;;;11.55;4.70;;;;;;;17.46;36.66;97016.53;4428147;32;20107;-87
2022/04/07 07:41:20;;;;;;;12.48;4.90;;;;;;;17.48;36.62;97017.19;4424011;32;20090;-88
2022/04/07 07:43:45;;;;;;;11.82;4.87;;;;;;;17.33;36.50;97019.72;4423526;32;20086;-88
2022/04/07 07:46:11;;;;;;;11.48;4.53;;;;;;;17.39;36.67;97018.22;4422418;32;20110;-90
2022/04/07 07:48:36;;;;;;;12.60;4.55;;;;;;;17.32;36.33;97009.25;4412065;32;20148;-92
2022/04/07 07:51:01;;;;;;;11.60;4.80;;;;;;;17.26;36.45;97016.91;4435738;32;20073;-89
2022/04/07 07:53:27;;;;;;;12.13;4.78;;;;;;;17.10;36.80;97027.59;4438853;32;20086;-90
2022/04/07 07:55:54;;;;;;;13.23;4.95;;;;;;;17.14;37.05;97020.94;4438645;32;20177;-87
2022/04/07 07:58:20;;;;;;;13.10;4.75;;;;;;;17.09;37.21;97017.94;4421972;32;20094;-90
2022/04/07 08:00:46;;;;;;;12.20;4.78;;;;;;;16.96;37.32;97020.28;4434950;32;20084;-88
2022/04/07 08:03:11;;;;;;;11.52;4.50;;;;;;;16.98;37.30;97023.59;4422050;32;20125;-91
2022/04/07 08:05:37;;;;;;;11.77;5.15;;;;;;;16.97;37.32;97025.44;4437228;32;20105;-88
2022/04/07 08:08:03;;;;;;;12.70;4.93;;;;;;;17.04;37.27;97020.28;4424498;32;20374;-92
2022/04/07 08:10:28;;;;;;;12.23;4.87;;;;;;;17.07;37.34;97011.94;4436498;32;20085;-90
2022/04/07 08:12:54;;;;;;;11.25;5.05;;;;;;;17.14;37.18;97033.41;4437340;32;20066;-91
2022/04/07 08:15:19;;;;;;;12.93;5.28;;;;;;;17.36;37.14;97030.03;4438359;32;20085;-91
2022/04/07 08:17:45;;;;;;;11.55;5.20;;;;;;;17.48;37.02;97042.00;4423783;32;20093;-89
2022/04/07 08:20:11;;;;;;;11.60;5.22;;;;;;;17.69;36.54;97035.25;4424290;32;20429;-91
2022/04/07 08:22:36;;;;;;;13.52;5.78;;;;;;;17.73;36.16;97036.59;4439746;32;20124;-91
2022/04/07 08:25:02;;;;;;;13.68;5.22;;;;;;;17.86;35.99;97038.72;4439902;32;20117;-90
2022/04/07 08:27:28;;;;;;;12.00;5.80;;;;;;;17.85;36.24;97040.56;4437833;32;20124;-89
2022/04/07 08:29:53;;;;;;;13.55;5.75;;;;;;;17.96;35.79;97044.69;4432821;32;20412;-91
2022/04/07 08:32:19;;;;;;;13.57;5.95;;;;;;;17.83;35.95;97047.06;4433929;32;20094;-91
2022/04/07 08:34:44;;;;;;;14.35;5.75;;;;;;;17.52;36.54;97047.81;4432171;32;20089;-92
2022/04/07 08:37:10;;;;;;;14.20;6.00;;;;;;;17.61;36.64;97045.94;4432846;32;20081;-90
2022/04/07 08:39:35;;;;;;;14.63;5.75;;;;;;;17.81;36.41;97038.38;4419177;32;20082;-86
2022/04/07 08:42:04;;;;;;;12.27;5.40;;;;;;;17.85;36.55;97032.59;4435072;32;20098;-94
2022/04/07 08:44:33;;;;;;;12.82;5.20;;;;;;;17.97;36.44;97032.22;4425920;32;20604;-94
2022/04/07 08:46:59;;;;;;;12.10;5.43;;;;;;;18.06;36.16;97032.00;4438669;32;20141;-94
2022/04/07 08:49:26;;;;;;;10.70;5.35;;;;;;;18.12;36.03;97030.47;4438288;32;20108;-91
2022/04/07 08:51:52;;;;;;;14.60;4.67;;;;;;;18.21;35.80;97036.56;4425432;32;20162;-92
2022/04/07 08:54:22;;;;;;;12.13;4.75;;;;;;;18.45;35.17;97032.94;4441748;32;20136;-93
2022/04/07 08:56:48;;;;;;;12.73;4.90;;;;;;;18.26;35.58;97027.03;4443202;32;21023;-93
2022/04/07 08:59:14;;;;;;;10.93;4.62;;;;;;;18.58;35.26;97030.53;4438595;32;20165;-94
2022/04/07 09:01:40;;;;;;;10.95;4.57;;;;;;;18.47;35.20;97022.94;4412985;32;20140;-93
2022/04/07 09:04:05;;;;;;;14.27;5.15;;;;;;;18.43;35.01;97025.12;4437115;32;20089;-90
2022/04/07 09:06:35;;;;;;;12.25;5.05;;;;;;;18.18;35.42;97012.94;4427615;32;20159;-89
2022/04/07 09:09:14;;;;;;;11.30;4.97;;;;;;;18.14;35.99;97016.94;4438019;32;20089;-94
2022/04/07 09:11:40;;;;;;;12.68;4.78;;;;;;;18.13;35.92;97009.97;4433817;32;20581;-88
2022/04/07 09:14:10;;;;;;;12.73;5.03;;;;;;;18.14;36.03;97007.13;4416221;32;20123;-90
2022/04/07 09:16:39;;;;;;;13.65;5.05;;;;;;;18.13;36.24;97005.47;4423960;32;20081;-91
2022/04/07 09:19:05;;;;;;;11.12;4.97;;;;;;;18.11;36.46;97012.81;4425625;32;20380;-90
2022/04/07 09:21:31;;;;;;;12.75;5.20;;;;;;;17.88;36.67;97013.56;4411368;32;20129;-89
2022/04/07 09:24:00;;;;;;;13.35;4.87;;;;;;;17.91;37.07;97008.94;4411653;32;20724;-91
2022/04/07 09:26:27;;;;;;;13.98;5.68;;;;;;;17.80;37.36;97010.91;4428187;32;20164;-86
2022/04/07 09:28:56;;;;;;;13.50;5.90;;;;;;;17.92;37.14;97015.91;4419836;32;20155;-87
2022/04/07 09:31:22;;;;;;;11.25;5.00;;;;;;;18.13;36.69;97009.97;4434059;32;20132;-92
2022/04/07 09:33:57;;;;;;;15.85;5.75;;;;;;;18.12;36.76;97000.31;4423330;32;20109;-92
2022/04/07 09:36:23;;;;;;;12.32;4.78;;;;;;;18.39;36.08;97001.66;4438448;32;20483;-91
2022/04/07 09:38:54;;;;;;;13.05;5.40;;;;;;;18.03;36.87;97000.34;4440552;32;20085;-91
2022/04/07 09:41:21;;;;;;;11.70;5.35;;;;;;;18.15;36.77;96998.13;4439691;32;20109;-89
2022/04/07 09:43:47;;;;;;;12.27;5.37;;;;;;;18.20;36.85;96998.44;4421817;32;20149;-88
2022/04/07 09:46:15;;;;;;;10.10;4.90;;;;;;;18.35;36.42;96984.34;4438715;32;20089;-87
2022/04/07 09:48:57;;;;;;;11.75;4.97;;;;;;;18.54;35.32;96983.03;4437975;32;20917;-87
2022/04/07 09:51:22;;;;;;;13.52;4.60;;;;;;;18.54;36.41;96983.88;4438262;32;20162;-87
2022/04/07 09:53:50;;;;;;;11.32;4.80;;;;;;;18.43;36.00;96990.47;4438318;32;20086;-89
2022/04/07 09:56:16;;;;;;;13.13;4.62;;;;;;;18.76;34.88;96989.38;4438478;32;20089;-90
2022/04/07 09:58:42;;;;;;;13.93;4.82;;;;;;;18.92;35.03;96991.94;4440700;32;20173;-92
2022/04/07 10:01:08;;;;;;;13.57;4.10;;;;;;;19.30;34.27;96991.09;4440523;32;20385;-92
2022/04/07 10:03:35;;;;;;;11.07;4.20;;;;;;;19.36;33.88;96991.16;4439973;32;20100;-93
2022/04/07 10:06:00;;;;;;;11.02;4.50;;;;;;;19.60;34.02;96994.56;4413914;32;20498;-91
2022/04/07 10:08:26;;;;;;;10.88;4.53;;;;;;;19.63;33.99;96995.03;4425025;32;20089;-87
2022/04/07 10:10:53;;;;;;;12.02;5.25;;;;;;;19.72;34.08;96994.97;4421545;32;20171;-87
2022/04/07 10:13:20;;;;;;;13.02;5.32;;;;;;;19.39;34.42;96997.97;4438545;32;20117;-87
2022/04/07 10:15:46;;;;;;;12.00;4.97;;;;;;;19.67;33.88;96984.00;4425680;32;20089;-88
2022/04/07 10:18:35;;;;;;;11.43;4.82;;;;;;;19.99;34.00;96974.75;4438771;32;20108;-87
2022/04/07 10:21:03;;;;;;;11.85;5.45;;;;;;;20.04;33.00;96977.69;4417690;32;20168;-88
2022/04/07 10:23:43;;;;;;;13.10;6.28;;;;;;;20.02;32.62;96977.88;4425010;32;20117;-88
2022/04/07 10:26:10;;;;;;;12.00;5.47;;;;;;;19.92;32.98;96974.69;4438081;32;20085;-87
2022/04/07 10:28:36;;;;;;;11.48;4.95;;;;;;;20.00;32.77;96979.91;4425475;32;20093;-88
2022/04/07 10:31:12;;;;;;;12.88;4.93;;;;;;;19.84;32.70;96977.47;4424355;32;20106;-87
2022/04/07 10:33:42;;;;;;;11.90;5.28;;;;;;;19.78;33.02;96964.81;4436691;32;20410;-87
2022/04/07 10:36:38;;;;;;;10.50;5.00;;;;;;;19.82;33.52;96961.59;4438520;32;20119;-87
2022/04/07 10:39:12;;;;;;;13.48;5.60;;;;;;;20.01;32.86;96962.88;4438556;32;20115;-88
2022/04/07 10:41:37;;;;;;;13.75;5.35;;;;;;;19.94;33.42;96955.78;4439587;32;20167;-87
2022/04/07 10:44:23;;;;;;;10.85;5.03;;;;;;;19.94;33.54;96961.13;4438593;32;20184;-88
2022/04/07 10:46:48;;;;;;;12.30;5.20;;;;;;;19.86;33.29;96961.22;4438585;32;20132;-90
2022/04/07 10:49:23;;;;;;;14.87;5.45;;;;;;;19.86;32.81;96951.38;4436224;32;20128;-87
2022/04/07 10:51:59;;;;;;;11.90;5.37;;;;;;;20.06;32.63;96942.75;4437828;32;20105;-90
2022/04/07 10:54:28;;;;;;;13.10;5.15;;;;;;;19.58;33.31;96941.34;4426244;32;20140;-91
2022/04/07 10:57:01;;;;;;;11.50;4.87;;;;;;;19.63;33.40;96941.62;4427413;32;20448;-92
2022/04/07 10:59:34;;;;;;;12.07;5.15;;;;;;;19.62;33.72;96934.63;4425840;32;20062;-93
2022/04/07 11:02:05;;;;;;;15.23;5.22;;;;;;;19.69;33.63;96940.03;4437390;32;20829;-93
2022/04/07 11:04:35;;;;;;;12.32;5.30;;;;;;;19.73;34.16;96938.69;4440185;32;20123;-92
2022/04/07 11:07:10;;;;;;;12.25;5.53;;;;;;;19.65;33.96;96931.56;4440081;32;20162;-92
2022/04/07 11:09:54;;;;;;;11.98;5.70;;;;;;;19.13;34.60;96940.53;4439929;32;20115;-94
2022/04/07 11:12:29;;;;;;;12.30;5.70;;;;;;;19.35;34.37;96937.94;4440308;32;20120;-93
2022/04/07 11:15:03;;;;;;;12.45;5.55;;;;;;;19.59;33.73;96926.16;4426442;32;20140;-92
2022/04/07 11:17:38;;;;;;;13.20;5.68;;;;;;;19.71;34.44;96926.50;4425260;32;20916;-93
2022/04/07 11:20:04;;;;;;;12.10;5.47;;;;;;;19.61;33.93;96918.78;4436054;32;20132;-88
2022/04/07 11:22:45;;;;;;;12.00;5.20;;;;;;;19.45;34.25;96925.97;4439966;32;20492;-91
2022/04/07 11:25:12;;;;;;;14.73;5.72;;;;;;;19.70;33.99;96922.16;4439931;32;20093;-93
2022/04/07 11:27:45;;;;;;;12.18;4.87;;;;;;;19.76;33.72;96919.63;4425251;32;20512;-92